Rejestracja

Wszystkie dane podawane są w czasie UTC za wyjątkiem miejsc gdzie jest jednoznacznie podane, że jest inaczej. Dane podawane w serwisie mają charakter informacyjny!!!
Informacje w sprawie dostępu do serwisu pod numerem tel. +48 261-828-559 lub +48 261-828-138
Informacja dla żołnierzy i pracowników wojska: Prosimy o niezwłoczną zmianę adresu e-mail w profilu użytkownika na pocztę w domenie @ron.mil.pl

Aktualna Pogoda
 
Pogoda w Polsce
13°C Szczecin 12°C Suwałki 14°C Warszawa 12°C Poznan
15°C Opole 13°C Kraków 14°C Rzeszów
Więcej miast w Polsce

Pogoda w Europie
14°C Berlin 17°C Paryz 16°C Bruksela 13°C Oslo
15°C Praga 17°C Zagrzeb
Więcej miast w Europie

Metary wojskowe test
METAR EPBC 090500Z 24003KT CAVOK 15/11 Q1018=
METAR EPCE 090530Z 23006KT 9999 SCT233 13/10 Q1015 RMK 130 081 4/4=
METAR EPDA 090530Z 22006KT 180V340 9999 SCT239 15/10 Q1015 RMK 147 075 4/4=
METAR EPDE 090530Z 23002KT 9999 FEW040 SCT100 17/12 Q1018 RMK 171 070 4/2=
METAR EPIR 090530Z 21006KT 9999 BKN086 14/10 Q1017 RMK 136 081 6/6=
METAR EPKS 090530Z 23004KT 180V260 9999 SCT005 BKN070 12/12 Q1017 RMK 121 100 7/4=
METAR EPLK 090530Z 21004KT 170V260 0500 R28/1000N FG OVC002 11/11 Q1018 RMK 109 100 8/8=
METAR EPLY 090530Z 23004KT 9999 FEW010 SCT100 14/12 Q1018 RMK 144 088 4/1=
METAR EPMB 090530Z AUTO 24003KT 9999 BKN043/// 13/10 Q1016 RMK 127 086 7/7=
METAR EPMI 090530Z VRB02KT 9999 BKN045 12/10 Q1016 RMK 122 084 7/7=
METAR EPMM 090530Z 28005KT 9999 SCT086 14/11 Q1018 RMK 139 081 3/3=
METAR EPNA 090500Z 17001KT 9999 SCT070 11/05 Q1016 RMK 106 070 4/4=
METAR EPOK 090530Z 25006KT 9999 FEW034 BKN248 14/10 Q1015 RMK 143 074 7/1=
METAR EPPR 090530Z 21004KT 9999 BKN100 13/10 Q1015 RMK 132 082 5/5=
METAR EPPW 090530Z 23004KT 3500 BR BKN003 12/12 Q1017 RMK 117 100 7/7=
METAR EPSN 090530Z 19003KT 160V220 9999 BKN200 12/12 Q1016 RMK 120 100 5/5=
METAR EPTM 090500Z 20002KT 9999 SCT090 BKN200 14/11 Q1018 RMK 135 086 5/3=


 

Prawa autorskie©2007 SSH SZ RP. Wszelkie prawa zastrzeżone.